Latest Weather Observations for Richmond

IDN60901

Issued at 11:31 am EDT Saturday 13 February 2016 (issued every 10 minutes, with the page automatically refreshed every 10 minutes)

About weather observations | Map of Sydney area stations | Latest observations for Sydney area | Other Formats
Station Details ID: 067105 Name: RICHMOND RAAF Lat: -33.60 Lon: 150.78 Height: 19.0 m
Data from the previous 72 hours. | See also: Recent months at Richmond
Date/Time
EDT
Tmp

°C
App
Tmp
°C
Dew
Point
°C
Rel
Hum
%
Delta-T

°C
Wind Press
QNH
hPa
Press
MSL
hPa
Rain
since
9 am
mm
Dir
 
Spd
km/h
Gust
km/h
Spd
kts
Gust
kts
13/11:00am 26.9 27.9 19.5 64 4.8 NNE 13 19 7 10 1014.0 1013.9 0.0
13/10:30am 26.0 26.7 18.9 65 4.5 NNE 13 19 7 10 1014.1 1014.0 0.0
13/10:00am 24.9 26.1 19.1 70 3.7 NE 11 19 6 10 1014.3 1014.2 0.0
13/09:30am 24.0 25.9 19.7 77 2.8 NE 9 15 5 8 1014.5 1014.4 0.0
13/09:00am 22.2 24.2 18.8 81 2.1 N 6 11 3 6 1014.6 1014.5 0.0
13/08:30am 20.9 22.9 18.7 87 1.4 NNW 6 7 3 4 1014.7 1014.6 0.0
13/08:00am 19.6 21.4 18.4 93 0.7 NNW 6 7 3 4 1014.7 1014.6 0.0
13/07:30am 18.7 20.4 18.0 96 0.4 N 6 9 3 5 1014.5 1014.4 0.0
13/07:00am 18.0 20.7 17.8 99 0.1 CALM 0 0 0 0 1014.4 1014.3 0.0
13/06:30am 17.7 20.3 17.4 98 0.2 CALM 0 0 0 0 1014.2 1014.1 0.0
13/06:00am 17.8 20.3 17.3 97 0.3 CALM 0 0 0 0 1014.1 1014.0 0.0
13/05:30am 17.9 19.2 17.6 98 0.2 WNW 7 9 4 5 1014.0 1013.9 0.0
13/05:00am 18.1 20.6 17.3 95 0.5 CALM 0 0 0 0 1013.9 1013.8 0.0
13/04:30am 18.4 21.0 17.4 94 0.6 CALM 0 0 0 0 1014.0 1013.9 0.0
13/04:00am 18.8 21.4 17.5 92 0.8 CALM 0 0 0 0 1014.1 1014.0 0.0
13/03:30am 19.4 22.2 17.9 91 0.9 CALM 0 0 0 0 1014.2 1014.1 0.0
13/03:00am 19.8 22.7 18.3 91 0.9 CALM 0 0 0 0 1014.2 1014.1 0.0
13/02:30am 20.4 22.8 18.7 90 1.1 NW 4 7 2 4 1014.5 1014.4 0.0
13/02:00am 20.7 22.9 19.2 91 0.9 NW 6 7 3 4 1014.6 1014.5 0.0
13/01:30am 21.0 23.1 19.3 90 1.1 NNE 7 9 4 5 1014.8 1014.7 0.0
13/01:00am 20.7 22.4 18.5 87 1.4 NNE 7 9 4 5 1015.1 1015.0 0.0
13/12:30am 21.3 23.4 19.0 87 1.5 NW 6 6 3 3 1015.4 1015.3 0.0
13/12:00am 21.1 24.0 18.1 83 1.9 CALM 0 0 0 0 1015.5 1015.4 0.0
 
Date/Time
EDT
Tmp

°C
App
Tmp
°C
Dew
Point
°C
Rel
Hum
%
Delta-T

°C
Wind Press
QNH
hPa
Press
MSL
hPa
Rain
since
9 am
mm
Dir
 
Spd
km/h
Gust
km/h
Spd
kts
Gust
kts
12/11:30pm 22.0 23.7 18.6 81 2.1 NNE 7 9 4 5 1015.4 1015.3 0.0
12/11:00pm 22.2 23.9 18.4 79 2.4 ENE 7 9 4 5 1015.6 1015.5 0.0
12/10:30pm 22.0 23.6 18.2 79 2.4 ENE 7 9 4 5 1015.6 1015.5 0.0
12/10:00pm 22.5 24.3 18.3 77 2.6 NE 6 11 3 6 1015.6 1015.5 0.0
12/09:30pm 22.9 24.0 18.0 74 3.1 ENE 9 15 5 8 1015.2 1015.1 0.0
12/09:00pm 23.4 24.0 18.5 74 3.1 ENE 13 17 7 9 1014.8 1014.7 0.0
12/08:30pm 24.2 25.2 18.6 71 3.5 ENE 11 15 6 8 1014.6 1014.5 0.0
12/08:00pm 24.8 25.0 18.5 68 4.0 ENE 15 20 8 11 1014.2 1014.1 0.0
12/07:30pm 25.7 25.5 18.6 65 4.5 ENE 17 24 9 13 1013.8 1013.7 0.0
12/07:00pm 26.8 26.1 18.6 60 5.2 ENE 20 26 11 14 1013.5 1013.4 0.0
12/06:30pm 27.8 27.9 19.1 59 5.6 NE 17 22 9 12 1013.3 1013.2 0.0
12/06:00pm 28.4 27.6 18.5 55 6.3 ENE 20 28 11 15 1013.0 1012.9 0.0
12/05:30pm 29.5 28.6 18.3 51 7.2 ENE 20 28 11 15 1012.8 1012.7 0.0
12/05:00pm 29.8 29.2 17.6 48 7.8 E 17 24 9 13 1012.8 1012.7 0.0
12/04:30pm 30.1 30.5 17.2 46 8.2 ENE 11 24 6 13 1012.9 1012.8 0.0
12/04:00pm 30.5 32.4 18.6 49 7.7 N 6 13 3 7 1013.2 1013.1 0.0
12/03:30pm 30.0 30.1 16.4 44 8.5 NE 11 15 6 8 1013.6 1013.5 0.0
12/03:00pm 29.5 30.1 16.7 46 8.0 ENE 9 24 5 13 1013.9 1013.8 0.0
12/02:30pm 29.9 30.5 18.7 51 7.2 ENE 13 19 7 10 1014.2 1014.1 0.0
12/02:00pm 28.9 28.9 17.1 49 7.4 NNE 13 20 7 11 1014.6 1014.5 0.0
12/01:30pm 28.3 28.7 17.2 51 7.0 ENE 11 19 6 10 1014.9 1014.8 0.0
12/01:00pm 28.8 29.5 18.9 55 6.4 NE 13 22 7 12 1015.3 1015.2 0.0
12/12:30pm 28.5 29.8 19.2 57 6.0 ENE 11 20 6 11 1015.9 1015.8 0.0
12/12:00pm 27.6 28.1 18.3 57 5.9 NE 13 20 7 11 1016.1 1016.0 0.0
12/11:30am 27.0 27.7 18.0 58 5.7 NNE 11 17 6 9 1016.4 1016.3 0.0
12/11:00am 25.8 27.0 18.2 63 4.8 NNE 9 13 5 7 1016.8 1016.7 0.0
12/10:30am 25.7 27.2 18.9 66 4.3 N 9 13 5 7 1017.0 1016.9 0.0
12/10:00am 24.5 27.4 19.8 75 3.0 SE 4 7 2 4 1017.2 1017.1 0.0
12/09:30am 23.0 26.6 19.8 82 2.1 CALM 0 0 0 0 1017.1 1017.0 0.0
12/09:00am 22.9 25.5 20.1 84 1.8 SSW 6 9 3 5 1017.1 1017.0 0.0
12/08:30am 21.9 25.5 19.8 88 1.3 CALM 0 0 0 0 1016.8 1016.7 0.0
12/08:00am 20.7 24.3 19.7 94 0.6 CALM 0 0 0 0 1016.6 1016.5 0.0
12/07:30am 20.0 23.6 19.8 99 0.1 CALM 0 0 0 0 1016.3 1016.2 0.0
12/07:19am 19.7 23.2 19.5 99 0.1 CALM 0 0 0 0 1016.2 1016.1 0.0
12/07:00am 18.8 21.9 18.6 99 0.1 CALM 0 0 0 0 1016.0 1015.9 0.0
12/06:31am 18.7 21.7 18.4 98 0.2 CALM 0 0 0 0 1015.8 1015.7 0.0
12/06:30am 18.7 21.7 18.4 98 0.2 CALM 0 0 0 0 1015.8 1015.7 0.0
12/06:00am 19.2 21.3 19.0 99 0.1 NNE 6 7 3 4 1015.5 1015.4 0.0
12/05:37am 18.6 21.5 18.3 98 0.2 CALM 0 0 0 0 1015.1 1015.0 0.0
12/05:30am 19.1 22.3 18.9 99 0.1 CALM 0 0 0 0 1015.0 1014.9 0.0
12/05:17am 18.7 21.5 18.0 96 0.4 CALM 0 0 0 0 1014.9 1014.8 0.0
12/05:00am 19.3 22.5 18.8 97 0.3 CALM 0 0 0 0 1014.9 1014.8 0.0
12/04:30am 19.5 22.1 19.2 98 0.2 NNE 4 7 2 4 1014.8 1014.7 0.0
12/04:00am 19.4 22.5 18.6 95 0.5 CALM 0 0 0 0 1014.7 1014.6 0.0
12/03:30am 20.1 23.4 19.1 94 0.6 CALM 0 0 0 0 1014.9 1014.8 0.0
12/03:00am 20.5 23.8 19.2 92 0.8 CALM 0 0 0 0 1015.0 1014.9 0.0
12/02:30am 20.9 23.3 19.6 92 0.8 SW 6 7 3 4 1015.4 1015.3 0.0
12/02:00am 21.1 24.6 19.6 91 1.0 CALM 0 0 0 0 1015.3 1015.2 0.0
12/01:30am 21.5 24.9 19.4 88 1.3 CALM 0 0 0 0 1015.5 1015.4 0.0
12/01:00am 21.9 25.5 19.8 88 1.3 CALM 0 0 0 0 1015.5 1015.4 0.0
12/12:30am 21.5 24.7 19.8 90 1.1 W 2 9 1 5 1015.5 1015.4 0.0
12/12:00am 21.9 24.2 19.8 88 1.3 SSW 7 9 4 5 1016.0 1015.9 0.0
 
Date/Time
EDT
Tmp

°C
App
Tmp
°C
Dew
Point
°C
Rel
Hum
%
Delta-T

°C
Wind Press
QNH
hPa
Press
MSL
hPa
Rain
since
9 am
mm
Dir
 
Spd
km/h
Gust
km/h
Spd
kts
Gust
kts
11/11:30pm 21.6 25.1 19.5 88 1.3 CALM 0 0 0 0 1015.9 1015.8 0.0
11/11:00pm 22.1 23.9 19.6 86 1.6 SSE 9 11 5 6 1015.9 1015.8 0.0
11/10:30pm 22.1 24.6 19.8 87 1.5 SE 6 7 3 4 1016.3 1016.2 0.0
11/10:00pm 22.2 24.6 19.6 85 1.7 S 6 9 3 5 1016.5 1016.4 0.0
11/09:30pm 22.4 23.8 19.6 84 1.8 SW 11 15 6 8 1016.2 1016.1 0.0
11/09:00pm 23.2 24.3 19.6 80 2.3 SE 13 15 7 8 1015.0 1014.9 0.0
11/08:30pm 23.2 25.0 19.6 80 2.3 E 9 15 5 8 1014.7 1014.6 0.0
11/08:00pm 23.3 24.2 19.2 78 2.6 E 13 17 7 9 1014.6 1014.5 0.0
11/07:30pm 23.7 24.4 18.8 74 3.1 E 13 19 7 10 1014.7 1014.6 0.0
11/07:00pm 24.6 24.7 18.3 68 4.0 E 15 22 8 12 1013.9 1013.8 0.0
11/06:30pm 25.0 24.2 18.0 65 4.4 E 19 26 10 14 1012.7 1012.6 0.0
11/06:00pm 25.7 24.8 18.1 63 4.8 E 20 28 11 15 1012.6 1012.5 0.0
11/05:30pm 26.8 25.8 17.6 57 5.8 E 19 26 10 14 1012.8 1012.7 0.0
11/05:00pm 27.9 27.9 17.1 51 6.8 ENE 13 17 7 9 1012.7 1012.6 0.0
11/04:30pm 28.3 27.8 16.9 50 7.1 ENE 15 24 8 13 1012.5 1012.4 0.0
11/04:00pm 29.8 30.1 17.9 48 7.6 E 13 19 7 10 1012.4 1012.3 0.0
11/03:30pm 28.9 29.9 17.7 50 7.1 E 9 17 5 9 1012.7 1012.6 0.0
11/03:00pm 28.9 29.9 17.7 50 7.1 ESE 9 17 5 9 1013.0 1012.9 0.0
11/02:30pm 29.1 31.1 19.1 54 6.5 N 7 13 4 7 1013.5 1013.4 0.0
11/02:00pm 28.1 29.0 17.6 53 6.6 NE 9 17 5 9 1013.9 1013.8 0.0
11/01:30pm 27.7 29.2 17.5 53 6.4 SE 6 11 3 6 1014.2 1014.1 0.0
11/01:00pm 27.2 27.9 17.9 56 5.9 NNE 11 17 6 9 1014.5 1014.4 0.0
11/12:30pm 26.8 27.8 17.8 57 5.7 SSE 9 15 5 8 1014.9 1014.8 0.0
11/12:00pm 26.3 27.7 17.9 60 5.3 N 7 17 4 9 1015.2 1015.1 0.0
11/11:30am 25.9 26.9 17.8 61 5.1 NE 9 15 5 8 1015.3 1015.2 0.0
11/11:00am 25.8 27.0 18.2 63 4.8 ENE 9 15 5 8 1015.5 1015.4 0.0
11/10:52am 25.4 27.1 18.6 66 4.3 ENE 7 11 4 6 1015.4 1015.3 0.0
11/10:37am 24.6 25.7 18.1 67 4.1 SSE 9 13 5 7 1015.4 1015.3 0.0
11/10:30am 24.8 26.6 18.7 69 3.9 ESE 7 13 4 7 1015.4 1015.3 0.0
11/10:00am 23.7 25.1 17.7 69 3.7 ESE 7 11 4 6 1015.5 1015.4 0.0
11/09:30am 22.8 24.3 18.1 75 2.9 SSE 7 13 4 7 1015.6 1015.5 0.0
11/09:00am 22.0 23.9 18.6 81 2.1 SSE 6 9 3 5 1015.8 1015.7 0.0
11/08:30am 20.7 21.9 18.3 86 1.5 SSW 9 13 5 7 1015.7 1015.6 0.0
11/08:00am 19.7 21.8 18.2 91 0.9 SSW 4 9 2 5 1015.4 1015.3 0.0
11/07:30am 18.7 21.5 17.9 95 0.5 CALM 0 0 0 0 1014.9 1014.8 0.0
11/07:00am 17.2 19.6 16.9 98 0.2 CALM 0 0 0 0 1014.6 1014.5 0.0
11/06:57am 17.1 19.4 16.8 98 0.2 CALM 0 0 0 0 1014.5 1014.4 0.0
11/06:42am 17.1 19.4 16.8 98 0.2 CALM 0 0 0 0 1014.3 1014.2 0.0
11/06:30am 17.2 19.6 16.9 98 0.2 CALM 0 0 0 0 1014.1 1014.0 0.0
11/06:00am 17.1 19.3 16.5 96 0.4 CALM 0 0 0 0 1013.8 1013.7 0.0
11/05:30am 17.3 19.6 16.7 96 0.4 CALM 0 0 0 0 1013.4 1013.3 0.0
11/05:00am 17.6 20.0 17.1 97 0.3 CALM 0 0 0 0 1013.3 1013.2 0.0
11/04:30am 17.6 19.8 16.6 94 0.6 CALM 0 0 0 0 1013.1 1013.0 0.0
11/04:00am 17.7 19.9 16.6 93 0.7 CALM 0 0 0 0 1013.1 1013.0 0.0
11/03:30am 18.2 20.7 17.2 94 0.6 CALM 0 0 0 0 1013.2 1013.1 0.0
11/03:00am 18.4 20.7 16.7 90 1.0 CALM 0 6 0 3 1013.3 1013.2 0.0
11/02:30am 18.9 21.4 17.2 90 1.0 CALM 0 0 0 0 1013.4 1013.3 0.0
11/02:00am 18.7 20.3 16.9 89 1.1 WNW 4 7 2 4 1013.4 1013.3 0.0
11/01:30am 19.7 21.8 17.1 85 1.6 SW 2 6 1 3 1013.5 1013.4 0.0
11/01:00am 20.3 20.9 16.9 81 2.1 E 9 11 5 6 1013.6 1013.5 0.0
11/12:30am 20.2 21.2 16.8 81 2.1 ENE 7 9 4 5 1013.7 1013.6 0.0
11/12:00am 20.6 21.2 16.8 79 2.3 ENE 9 11 5 6 1013.9 1013.8 0.0
 
Date/Time
EDT
Tmp

°C
App
Tmp
°C
Dew
Point
°C
Rel
Hum
%
Delta-T

°C
Wind Press
QNH
hPa
Press
MSL
hPa
Rain
since
9 am
mm
Dir
 
Spd
km/h
Gust
km/h
Spd
kts
Gust
kts
10/11:30pm 21.1 21.7 16.9 77 2.6 ENE 9 11 5 6 1013.9 1013.8 0.0
10/11:00pm 21.4 21.7 17.0 76 2.7 NE 11 15 6 8 1013.9 1013.8 0.0
10/10:30pm 21.7 21.8 17.5 77 2.6 NE 13 17 7 9 1013.9 1013.8 0.0
10/10:00pm 22.5 22.7 17.6 74 3.0 ENE 13 19 7 10 1013.8 1013.7 0.0
10/09:30pm 22.6 23.8 18.2 76 2.8 ENE 9 13 5 7 1013.6 1013.5 0.0
10/09:00pm 23.3 24.1 18.2 73 3.2 ENE 11 17 6 9 1013.2 1013.1 0.0
10/08:30pm 24.0 24.1 18.4 71 3.5 ENE 15 22 8 12 1012.7 1012.6 0.0
10/08:00pm 24.9 24.7 18.6 68 4.0 ENE 17 22 9 12 1012.4 1012.3 0.0
10/07:30pm 26.2 25.7 18.6 63 4.8 ENE 19 24 10 13 1011.8 1011.7 0.0
10/07:00pm 27.5 26.9 18.5 58 5.8 ENE 19 30 10 16 1011.4 1011.3 0.0
10/06:30pm 28.8 28.3 18.6 54 6.6 ENE 19 24 10 13 1011.1 1011.0 0.0
10/06:00pm 29.9 30.0 18.3 49 7.5 ENE 15 24 8 13 1010.9 1010.8 0.0
10/05:30pm 30.7 30.4 15.5 39 9.4 N 11 15 6 8 1010.8 1010.7 0.0
10/05:00pm 30.5 30.4 15.0 39 9.5 NNE 9 15 5 8 1010.9 1010.8 0.0
10/04:30pm 30.5 29.9 14.6 38 9.7 NE 11 20 6 11 1011.0 1010.9 0.0
10/04:00pm 30.2 29.5 15.5 41 9.1 ENE 13 19 7 10 1011.2 1011.1 0.0
10/03:33pm 29.9 30.4 17.4 47 7.9 E 11 19 6 10 1011.7 1011.6 0.0
10/03:30pm 29.7 29.6 16.1 43 8.5 E 11 19 6 10 1011.7 1011.6 0.0
10/03:14pm 29.7 29.6 16.1 43 8.5 NE 11 20 6 11 1011.9 1011.8 0.0
10/03:00pm 29.4 29.3 16.9 47 7.9 ENE 13 19 7 10 1012.0 1011.9 0.0
10/02:30pm 28.7 28.5 16.6 48 7.5 NE 13 24 7 13 1012.6 1012.5 0.0
10/02:00pm 29.2 30.5 19.2 54 6.5 ENE 11 22 6 12 1013.0 1012.9 0.0
10/01:30pm 28.1 27.8 17.3 52 6.8 NE 15 24 8 13 1013.5 1013.4 0.0
10/01:00pm 27.6 28.1 17.5 54 6.4 ENE 11 20 6 11 1014.1 1014.0 0.0
10/12:30pm 27.4 27.7 17.8 55 6.1 NE 13 22 7 12 1014.6 1014.5 0.0
10/12:00pm 26.2 26.0 16.7 56 5.9 NE 13 24 7 13 1015.1 1015.0 0.0

Latest Capital City Observations: Canberra | Sydney | Melbourne | Brisbane | Adelaide | Perth | Hobart | Darwin

Other Formats:

Comma delimited format used in spreadsheet applications
http://www.bom.gov.au/fwo/IDN60901/IDN60901.95753.axf

JavaScript Object Notation format (JSON) in row-major order
http://www.bom.gov.au/fwo/IDN60901/IDN60901.95753.json